sensor_id;sensor_type;location;lat;lon;timestamp;P1;durP1;ratioP1;P2;durP2;ratioP2
65234;SDS011;51820;48.374;10.930;2023-02-25T00:01:43;10.77;;;3.53;;
65234;SDS011;51820;48.374;10.930;2023-02-25T00:04:28;10.18;;;3.55;;
65234;SDS011;51820;48.374;10.930;2023-02-25T00:06:57;9.38;;;3.08;;
65234;SDS011;51820;48.374;10.930;2023-02-25T00:09:27;7.43;;;2.73;;
65234;SDS011;51820;48.374;10.930;2023-02-25T00:11:58;7.20;;;2.55;;
65234;SDS011;51820;48.374;10.930;2023-02-25T00:14:26;7.25;;;2.60;;
65234;SDS011;51820;48.374;10.930;2023-02-25T00:16:56;7.13;;;2.40;;
65234;SDS011;51820;48.374;10.930;2023-02-25T00:19:27;7.13;;;2.08;;
65234;SDS011;51820;48.374;10.930;2023-02-25T00:21:55;7.87;;;2.00;;
65234;SDS011;51820;48.374;10.930;2023-02-25T00:24:24;6.05;;;2.03;;
65234;SDS011;51820;48.374;10.930;2023-02-25T00:26:53;6.43;;;2.10;;
65234;SDS011;51820;48.374;10.930;2023-02-25T00:29:23;7.18;;;2.10;;
65234;SDS011;51820;48.374;10.930;2023-02-25T00:31:52;7.38;;;2.10;;
65234;SDS011;51820;48.374;10.930;2023-02-25T00:34:21;5.73;;;1.80;;
65234;SDS011;51820;48.374;10.930;2023-02-25T00:36:50;6.32;;;2.08;;
65234;SDS011;51820;48.374;10.930;2023-02-25T00:39:20;6.97;;;2.10;;
65234;SDS011;51820;48.374;10.930;2023-02-25T00:41:50;7.13;;;1.80;;
65234;SDS011;51820;48.374;10.930;2023-02-25T00:44:19;5.55;;;1.55;;
65234;SDS011;51820;48.374;10.930;2023-02-25T00:46:52;6.77;;;2.00;;
65234;SDS011;51820;48.374;10.930;2023-02-25T00:49:20;5.65;;;1.65;;
65234;SDS011;51820;48.374;10.930;2023-02-25T00:51:58;5.50;;;1.77;;
65234;SDS011;51820;48.374;10.930;2023-02-25T00:54:27;4.68;;;1.45;;
65234;SDS011;51820;48.374;10.930;2023-02-25T00:56:55;5.82;;;1.88;;
65234;SDS011;51820;48.374;10.930;2023-02-25T00:59:24;6.73;;;1.83;;
65234;SDS011;51820;48.374;10.930;2023-02-25T01:01:54;6.70;;;1.55;;
65234;SDS011;51820;48.374;10.930;2023-02-25T01:04:23;5.90;;;1.60;;
65234;SDS011;51820;48.374;10.930;2023-02-25T01:06:52;6.05;;;1.60;;
65234;SDS011;51820;48.374;10.930;2023-02-25T01:09:21;6.20;;;1.70;;
65234;SDS011;51820;48.374;10.930;2023-02-25T01:11:50;5.03;;;1.60;;
65234;SDS011;51820;48.374;10.930;2023-02-25T01:14:20;5.10;;;1.45;;
65234;SDS011;51820;48.374;10.930;2023-02-25T01:16:50;6.88;;;2.10;;
65234;SDS011;51820;48.374;10.930;2023-02-25T01:19:23;5.53;;;1.55;;
65234;SDS011;51820;48.374;10.930;2023-02-25T01:21:54;6.57;;;1.83;;
65234;SDS011;51820;48.374;10.930;2023-02-25T01:24:25;5.40;;;1.70;;
65234;SDS011;51820;48.374;10.930;2023-02-25T01:26:55;5.85;;;1.85;;
65234;SDS011;51820;48.374;10.930;2023-02-25T01:29:26;6.13;;;1.88;;
65234;SDS011;51820;48.374;10.930;2023-02-25T01:31:57;6.53;;;2.00;;
65234;SDS011;51820;48.374;10.930;2023-02-25T01:34:31;7.03;;;1.58;;
65234;SDS011;51820;48.374;10.930;2023-02-25T01:37:01;6.40;;;2.17;;
65234;SDS011;51820;48.374;10.930;2023-02-25T01:39:30;4.75;;;1.50;;
65234;SDS011;51820;48.374;10.930;2023-02-25T01:42:01;4.93;;;1.95;;
65234;SDS011;51820;48.374;10.930;2023-02-25T01:44:32;6.15;;;2.33;;
65234;SDS011;51820;48.374;10.930;2023-02-25T01:47:03;6.15;;;1.92;;
65234;SDS011;51820;48.374;10.930;2023-02-25T01:49:37;5.97;;;1.90;;
65234;SDS011;51820;48.374;10.930;2023-02-25T01:52:09;6.10;;;1.80;;
65234;SDS011;51820;48.374;10.930;2023-02-25T01:54:41;5.90;;;2.15;;
65234;SDS011;51820;48.374;10.930;2023-02-25T01:57:22;6.65;;;2.17;;
65234;SDS011;51820;48.374;10.930;2023-02-25T01:59:55;5.20;;;1.80;;
65234;SDS011;51820;48.374;10.930;2023-02-25T02:02:41;7.17;;;1.97;;
65234;SDS011;51820;48.374;10.930;2023-02-25T02:05:13;5.40;;;1.95;;
65234;SDS011;51820;48.374;10.930;2023-02-25T02:07:46;5.82;;;2.10;;
65234;SDS011;51820;48.374;10.930;2023-02-25T02:10:15;6.45;;;2.10;;
65234;SDS011;51820;48.374;10.930;2023-02-25T02:12:45;8.02;;;2.20;;
65234;SDS011;51820;48.374;10.930;2023-02-25T02:15:15;5.33;;;2.00;;
65234;SDS011;51820;48.374;10.930;2023-02-25T02:17:46;5.43;;;2.05;;
65234;SDS011;51820;48.374;10.930;2023-02-25T02:20:22;5.88;;;2.50;;
65234;SDS011;51820;48.374;10.930;2023-02-25T02:23:15;5.68;;;2.22;;
65234;SDS011;51820;48.374;10.930;2023-02-25T02:29:34;6.30;;;2.40;;
65234;SDS011;51820;48.374;10.930;2023-02-25T02:32:32;6.13;;;2.10;;
65234;SDS011;51820;48.374;10.930;2023-02-25T02:35:12;7.20;;;2.50;;
65234;SDS011;51820;48.374;10.930;2023-02-25T02:37:51;6.47;;;2.45;;
65234;SDS011;51820;48.374;10.930;2023-02-25T02:40:37;6.57;;;2.40;;
65234;SDS011;51820;48.374;10.930;2023-02-25T02:43:15;6.47;;;2.40;;
65234;SDS011;51820;48.374;10.930;2023-02-25T02:45:52;7.93;;;2.78;;
65234;SDS011;51820;48.374;10.930;2023-02-25T02:48:29;7.40;;;2.63;;
65234;SDS011;51820;48.374;10.930;2023-02-25T02:51:05;7.45;;;2.88;;
65234;SDS011;51820;48.374;10.930;2023-02-25T02:53:39;6.78;;;2.65;;
65234;SDS011;51820;48.374;10.930;2023-02-25T02:56:11;6.67;;;3.07;;
65234;SDS011;51820;48.374;10.930;2023-02-25T02:58:45;8.63;;;3.38;;
65234;SDS011;51820;48.374;10.930;2023-02-25T03:01:22;7.70;;;3.28;;
65234;SDS011;51820;48.374;10.930;2023-02-25T03:04:00;8.25;;;3.45;;
65234;SDS011;51820;48.374;10.930;2023-02-25T03:06:35;7.68;;;3.00;;
65234;SDS011;51820;48.374;10.930;2023-02-25T03:09:08;8.87;;;3.07;;
65234;SDS011;51820;48.374;10.930;2023-02-25T03:11:40;9.98;;;3.50;;
65234;SDS011;51820;48.374;10.930;2023-02-25T03:14:10;7.93;;;3.53;;
65234;SDS011;51820;48.374;10.930;2023-02-25T03:16:43;7.80;;;3.58;;
65234;SDS011;51820;48.374;10.930;2023-02-25T03:19:16;9.27;;;4.47;;
65234;SDS011;51820;48.374;10.930;2023-02-25T03:21:51;10.17;;;3.80;;
65234;SDS011;51820;48.374;10.930;2023-02-25T03:24:24;11.20;;;4.38;;
65234;SDS011;51820;48.374;10.930;2023-02-25T03:26:59;8.60;;;4.03;;
65234;SDS011;51820;48.374;10.930;2023-02-25T03:29:32;10.07;;;3.95;;
65234;SDS011;51820;48.374;10.930;2023-02-25T03:32:02;8.38;;;3.70;;
65234;SDS011;51820;48.374;10.930;2023-02-25T03:34:39;8.50;;;4.00;;
65234;SDS011;51820;48.374;10.930;2023-02-25T03:37:14;10.27;;;4.55;;
65234;SDS011;51820;48.374;10.930;2023-02-25T03:39:48;9.70;;;4.43;;
65234;SDS011;51820;48.374;10.930;2023-02-25T03:42:22;8.73;;;4.25;;
65234;SDS011;51820;48.374;10.930;2023-02-25T03:44:55;10.23;;;4.32;;
65234;SDS011;51820;48.374;10.930;2023-02-25T03:47:28;10.40;;;4.40;;
65234;SDS011;51820;48.374;10.930;2023-02-25T03:50:01;11.82;;;4.47;;
65234;SDS011;51820;48.374;10.930;2023-02-25T03:52:39;8.77;;;4.18;;
65234;SDS011;51820;48.374;10.930;2023-02-25T03:55:24;9.00;;;4.10;;
65234;SDS011;51820;48.374;10.930;2023-02-25T03:57:55;10.38;;;4.85;;
65234;SDS011;51820;48.374;10.930;2023-02-25T04:00:24;13.43;;;4.43;;
65234;SDS011;51820;48.374;10.930;2023-02-25T04:02:54;8.93;;;4.32;;
65234;SDS011;51820;48.374;10.930;2023-02-25T04:05:24;14.10;;;4.57;;
65234;SDS011;51820;48.374;10.930;2023-02-25T04:07:54;9.73;;;4.38;;
65234;SDS011;51820;48.374;10.930;2023-02-25T04:10:24;10.55;;;4.35;;
65234;SDS011;51820;48.374;10.930;2023-02-25T04:12:53;11.17;;;4.57;;
65234;SDS011;51820;48.374;10.930;2023-02-25T04:15:22;11.85;;;4.60;;
65234;SDS011;51820;48.374;10.930;2023-02-25T04:17:54;11.65;;;4.40;;
65234;SDS011;51820;48.374;10.930;2023-02-25T04:20:25;10.25;;;4.90;;
65234;SDS011;51820;48.374;10.930;2023-02-25T04:22:55;9.98;;;4.53;;
65234;SDS011;51820;48.374;10.930;2023-02-25T04:25:23;10.47;;;4.10;;
65234;SDS011;51820;48.374;10.930;2023-02-25T04:27:52;9.55;;;4.30;;
65234;SDS011;51820;48.374;10.930;2023-02-25T04:30:20;8.95;;;4.30;;
65234;SDS011;51820;48.374;10.930;2023-02-25T04:32:49;10.27;;;4.60;;
65234;SDS011;51820;48.374;10.930;2023-02-25T04:35:17;10.02;;;4.30;;
65234;SDS011;51820;48.374;10.930;2023-02-25T04:37:47;9.87;;;4.30;;
65234;SDS011;51820;48.374;10.930;2023-02-25T04:40:18;10.75;;;4.70;;
65234;SDS011;51820;48.374;10.930;2023-02-25T04:42:48;13.82;;;5.07;;
65234;SDS011;51820;48.374;10.930;2023-02-25T04:45:16;10.90;;;4.40;;
65234;SDS011;51820;48.374;10.930;2023-02-25T04:47:53;9.38;;;4.35;;
65234;SDS011;51820;48.374;10.930;2023-02-25T04:50:23;10.77;;;4.00;;
65234;SDS011;51820;48.374;10.930;2023-02-25T04:52:53;12.77;;;4.40;;
65234;SDS011;51820;48.374;10.930;2023-02-25T04:55:22;9.73;;;4.18;;
65234;SDS011;51820;48.374;10.930;2023-02-25T04:57:50;10.10;;;4.50;;
65234;SDS011;51820;48.374;10.930;2023-02-25T05:00:19;8.10;;;3.80;;
65234;SDS011;51820;48.374;10.930;2023-02-25T05:02:50;13.20;;;4.23;;
65234;SDS011;51820;48.374;10.930;2023-02-25T05:05:19;10.23;;;3.72;;
65234;SDS011;51820;48.374;10.930;2023-02-25T05:07:47;9.63;;;4.20;;
65234;SDS011;51820;48.374;10.930;2023-02-25T05:10:17;8.93;;;3.83;;
65234;SDS011;51820;48.374;10.930;2023-02-25T05:12:46;9.80;;;3.65;;
65234;SDS011;51820;48.374;10.930;2023-02-25T05:15:14;8.83;;;3.63;;
65234;SDS011;51820;48.374;10.930;2023-02-25T05:17:43;10.38;;;3.50;;
65234;SDS011;51820;48.374;10.930;2023-02-25T05:20:11;9.95;;;3.50;;
65234;SDS011;51820;48.374;10.930;2023-02-25T05:22:40;12.48;;;3.60;;
65234;SDS011;51820;48.374;10.930;2023-02-25T05:25:09;9.40;;;3.63;;
65234;SDS011;51820;48.374;10.930;2023-02-25T05:27:39;9.13;;;4.03;;
65234;SDS011;51820;48.374;10.930;2023-02-25T05:30:08;10.40;;;3.67;;
65234;SDS011;51820;48.374;10.930;2023-02-25T05:32:37;8.02;;;3.60;;
65234;SDS011;51820;48.374;10.930;2023-02-25T05:35:06;11.02;;;4.00;;
65234;SDS011;51820;48.374;10.930;2023-02-25T05:37:35;9.77;;;3.42;;
65234;SDS011;51820;48.374;10.930;2023-02-25T05:40:05;10.40;;;3.47;;
65234;SDS011;51820;48.374;10.930;2023-02-25T05:42:35;10.40;;;3.55;;
65234;SDS011;51820;48.374;10.930;2023-02-25T05:45:05;8.75;;;3.30;;
65234;SDS011;51820;48.374;10.930;2023-02-25T05:47:35;7.38;;;2.97;;
65234;SDS011;51820;48.374;10.930;2023-02-25T05:50:03;11.48;;;3.40;;
65234;SDS011;51820;48.374;10.930;2023-02-25T05:52:32;8.07;;;3.20;;
65234;SDS011;51820;48.374;10.930;2023-02-25T05:55:00;9.60;;;3.90;;
65234;SDS011;51820;48.374;10.930;2023-02-25T05:57:29;9.23;;;4.00;;
65234;SDS011;51820;48.374;10.930;2023-02-25T05:59:58;8.20;;;3.03;;
65234;SDS011;51820;48.374;10.930;2023-02-25T06:02:28;9.05;;;3.55;;
65234;SDS011;51820;48.374;10.930;2023-02-25T06:04:59;9.67;;;3.53;;
65234;SDS011;51820;48.374;10.930;2023-02-25T06:07:28;8.70;;;3.45;;
65234;SDS011;51820;48.374;10.930;2023-02-25T06:09:56;10.75;;;3.25;;
65234;SDS011;51820;48.374;10.930;2023-02-25T06:12:27;7.97;;;3.28;;
65234;SDS011;51820;48.374;10.930;2023-02-25T06:14:56;9.07;;;3.22;;
65234;SDS011;51820;48.374;10.930;2023-02-25T06:17:24;9.43;;;3.23;;
65234;SDS011;51820;48.374;10.930;2023-02-25T06:19:54;9.25;;;3.58;;
65234;SDS011;51820;48.374;10.930;2023-02-25T06:22:22;10.13;;;3.70;;
65234;SDS011;51820;48.374;10.930;2023-02-25T06:24:51;7.25;;;3.13;;
65234;SDS011;51820;48.374;10.930;2023-02-25T06:27:19;13.23;;;3.20;;
65234;SDS011;51820;48.374;10.930;2023-02-25T06:29:48;7.97;;;2.77;;
65234;SDS011;51820;48.374;10.930;2023-02-25T06:32:17;9.48;;;3.20;;
65234;SDS011;51820;48.374;10.930;2023-02-25T06:34:46;8.30;;;2.72;;
65234;SDS011;51820;48.374;10.930;2023-02-25T06:37:16;9.13;;;3.20;;
65234;SDS011;51820;48.374;10.930;2023-02-25T06:39:44;7.90;;;3.00;;
65234;SDS011;51820;48.374;10.930;2023-02-25T06:42:13;11.17;;;2.83;;
65234;SDS011;51820;48.374;10.930;2023-02-25T06:44:41;8.82;;;3.05;;
65234;SDS011;51820;48.374;10.930;2023-02-25T06:47:10;9.27;;;3.33;;
65234;SDS011;51820;48.374;10.930;2023-02-25T06:49:39;13.60;;;2.95;;
65234;SDS011;51820;48.374;10.930;2023-02-25T06:52:08;8.70;;;2.92;;
65234;SDS011;51820;48.374;10.930;2023-02-25T06:54:38;12.30;;;3.53;;
65234;SDS011;51820;48.374;10.930;2023-02-25T06:57:06;8.20;;;2.53;;
65234;SDS011;51820;48.374;10.930;2023-02-25T06:59:34;9.57;;;2.58;;
65234;SDS011;51820;48.374;10.930;2023-02-25T07:02:03;8.20;;;2.25;;
65234;SDS011;51820;48.374;10.930;2023-02-25T07:04:31;6.78;;;2.40;;
65234;SDS011;51820;48.374;10.930;2023-02-25T07:07:00;8.70;;;2.27;;
65234;SDS011;51820;48.374;10.930;2023-02-25T07:09:28;5.95;;;2.28;;
65234;SDS011;51820;48.374;10.930;2023-02-25T07:11:58;10.18;;;2.83;;
65234;SDS011;51820;48.374;10.930;2023-02-25T07:14:26;9.60;;;2.30;;
65234;SDS011;51820;48.374;10.930;2023-02-25T07:16:55;9.30;;;2.53;;
65234;SDS011;51820;48.374;10.930;2023-02-25T07:19:23;8.37;;;2.53;;
65234;SDS011;51820;48.374;10.930;2023-02-25T07:21:52;9.57;;;2.80;;
65234;SDS011;51820;48.374;10.930;2023-02-25T07:24:20;8.85;;;2.63;;
65234;SDS011;51820;48.374;10.930;2023-02-25T07:26:49;8.13;;;2.30;;
65234;SDS011;51820;48.374;10.930;2023-02-25T07:29:19;8.10;;;2.90;;
65234;SDS011;51820;48.374;10.930;2023-02-25T07:31:47;11.70;;;2.87;;
65234;SDS011;51820;48.374;10.930;2023-02-25T07:34:16;6.43;;;2.17;;
65234;SDS011;51820;48.374;10.930;2023-02-25T07:36:45;8.45;;;2.63;;
65234;SDS011;51820;48.374;10.930;2023-02-25T07:39:13;7.93;;;2.60;;
65234;SDS011;51820;48.374;10.930;2023-02-25T07:41:42;8.70;;;2.35;;
65234;SDS011;51820;48.374;10.930;2023-02-25T07:44:10;14.20;;;2.60;;
65234;SDS011;51820;48.374;10.930;2023-02-25T07:46:42;8.88;;;2.60;;
65234;SDS011;51820;48.374;10.930;2023-02-25T07:49:10;9.68;;;2.30;;
65234;SDS011;51820;48.374;10.930;2023-02-25T07:51:39;10.18;;;2.40;;
65234;SDS011;51820;48.374;10.930;2023-02-25T07:54:07;7.55;;;2.72;;
65234;SDS011;51820;48.374;10.930;2023-02-25T07:56:36;10.67;;;2.30;;
65234;SDS011;51820;48.374;10.930;2023-02-25T07:59:05;8.98;;;2.13;;
65234;SDS011;51820;48.374;10.930;2023-02-25T08:01:33;7.47;;;2.05;;
65234;SDS011;51820;48.374;10.930;2023-02-25T08:04:04;7.53;;;2.03;;
65234;SDS011;51820;48.374;10.930;2023-02-25T08:06:35;8.60;;;2.00;;
65234;SDS011;51820;48.374;10.930;2023-02-25T08:09:04;10.07;;;2.47;;
65234;SDS011;51820;48.374;10.930;2023-02-25T08:11:33;8.27;;;2.00;;
65234;SDS011;51820;48.374;10.930;2023-02-25T08:14:01;6.20;;;2.05;;
65234;SDS011;51820;48.374;10.930;2023-02-25T08:16:31;8.98;;;2.25;;
65234;SDS011;51820;48.374;10.930;2023-02-25T08:19:00;7.25;;;2.05;;
65234;SDS011;51820;48.374;10.930;2023-02-25T08:21:30;9.93;;;2.37;;
65234;SDS011;51820;48.374;10.930;2023-02-25T08:23:59;7.70;;;1.75;;
65234;SDS011;51820;48.374;10.930;2023-02-25T08:26:27;6.75;;;2.00;;
65234;SDS011;51820;48.374;10.930;2023-02-25T08:28:55;9.05;;;2.53;;
65234;SDS011;51820;48.374;10.930;2023-02-25T08:31:24;8.82;;;1.98;;
65234;SDS011;51820;48.374;10.930;2023-02-25T08:33:53;8.73;;;2.10;;
65234;SDS011;51820;48.374;10.930;2023-02-25T08:36:24;5.53;;;1.73;;
65234;SDS011;51820;48.374;10.930;2023-02-25T08:38:55;8.10;;;2.00;;
65234;SDS011;51820;48.374;10.930;2023-02-25T08:41:25;10.00;;;2.20;;
65234;SDS011;51820;48.374;10.930;2023-02-25T08:43:57;6.68;;;1.70;;
65234;SDS011;51820;48.374;10.930;2023-02-25T08:46:29;6.73;;;1.60;;
65234;SDS011;51820;48.374;10.930;2023-02-25T08:48:58;6.75;;;1.30;;
65234;SDS011;51820;48.374;10.930;2023-02-25T08:51:29;10.93;;;1.88;;
65234;SDS011;51820;48.374;10.930;2023-02-25T08:54:03;6.88;;;1.70;;
65234;SDS011;51820;48.374;10.930;2023-02-25T08:56:33;6.97;;;1.75;;
65234;SDS011;51820;48.374;10.930;2023-02-25T08:59:02;10.73;;;1.40;;
65234;SDS011;51820;48.374;10.930;2023-02-25T09:01:31;7.70;;;1.83;;
65234;SDS011;51820;48.374;10.930;2023-02-25T09:04:11;6.80;;;1.63;;
65234;SDS011;51820;48.374;10.930;2023-02-25T09:06:40;7.65;;;1.60;;
65234;SDS011;51820;48.374;10.930;2023-02-25T09:09:10;8.38;;;1.92;;
65234;SDS011;51820;48.374;10.930;2023-02-25T09:11:40;7.07;;;1.40;;
65234;SDS011;51820;48.374;10.930;2023-02-25T09:14:09;7.80;;;1.58;;
65234;SDS011;51820;48.374;10.930;2023-02-25T09:16:38;6.50;;;1.40;;
65234;SDS011;51820;48.374;10.930;2023-02-25T09:19:06;7.82;;;1.30;;
65234;SDS011;51820;48.374;10.930;2023-02-25T09:21:36;5.60;;;1.52;;
65234;SDS011;51820;48.374;10.930;2023-02-25T09:24:06;6.50;;;1.30;;
65234;SDS011;51820;48.374;10.930;2023-02-25T09:26:36;9.65;;;1.13;;
65234;SDS011;51820;48.374;10.930;2023-02-25T09:29:04;7.18;;;1.30;;
65234;SDS011;51820;48.374;10.930;2023-02-25T09:31:33;4.57;;;1.25;;
65234;SDS011;51820;48.374;10.930;2023-02-25T09:34:03;6.32;;;1.30;;
65234;SDS011;51820;48.374;10.930;2023-02-25T09:36:33;5.20;;;1.13;;
65234;SDS011;51820;48.374;10.930;2023-02-25T09:39:02;6.20;;;1.10;;
65234;SDS011;51820;48.374;10.930;2023-02-25T09:41:38;9.65;;;0.93;;
65234;SDS011;51820;48.374;10.930;2023-02-25T09:44:14;5.78;;;0.90;;
65234;SDS011;51820;48.374;10.930;2023-02-25T09:46:46;4.88;;;0.70;;
65234;SDS011;51820;48.374;10.930;2023-02-25T09:49:20;4.67;;;0.83;;
65234;SDS011;51820;48.374;10.930;2023-02-25T09:51:57;4.75;;;1.00;;
65234;SDS011;51820;48.374;10.930;2023-02-25T09:54:32;3.33;;;0.80;;
65234;SDS011;51820;48.374;10.930;2023-02-25T09:57:06;6.32;;;1.10;;
65234;SDS011;51820;48.374;10.930;2023-02-25T09:59:38;6.82;;;1.10;;
65234;SDS011;51820;48.374;10.930;2023-02-25T10:02:14;6.00;;;1.10;;
65234;SDS011;51820;48.374;10.930;2023-02-25T10:04:56;8.00;;;1.00;;
65234;SDS011;51820;48.374;10.930;2023-02-25T10:07:33;3.72;;;0.82;;
65234;SDS011;51820;48.374;10.930;2023-02-25T10:10:08;9.98;;;1.50;;
65234;SDS011;51820;48.374;10.930;2023-02-25T10:12:48;4.63;;;1.20;;
65234;SDS011;51820;48.374;10.930;2023-02-25T10:15:28;6.13;;;1.30;;
65234;SDS011;51820;48.374;10.930;2023-02-25T10:18:09;6.75;;;1.00;;
65234;SDS011;51820;48.374;10.930;2023-02-25T10:20:54;6.18;;;1.40;;
65234;SDS011;51820;48.374;10.930;2023-02-25T10:24:07;8.27;;;0.82;;
65234;SDS011;51820;48.374;10.930;2023-02-25T10:26:44;6.15;;;0.90;;
65234;SDS011;51820;48.374;10.930;2023-02-25T10:29:22;11.10;;;4.23;;
65234;SDS011;51820;48.374;10.930;2023-02-25T10:31:55;9.13;;;2.20;;
65234;SDS011;51820;48.374;10.930;2023-02-25T10:34:26;7.65;;;1.00;;
65234;SDS011;51820;48.374;10.930;2023-02-25T10:36:56;3.88;;;0.85;;
65234;SDS011;51820;48.374;10.930;2023-02-25T10:39:26;7.05;;;1.02;;
65234;SDS011;51820;48.374;10.930;2023-02-25T10:41:56;16.07;;;5.93;;
65234;SDS011;51820;48.374;10.930;2023-02-25T10:44:26;11.25;;;4.10;;
65234;SDS011;51820;48.374;10.930;2023-02-25T10:46:56;12.05;;;3.78;;
65234;SDS011;51820;48.374;10.930;2023-02-25T10:49:28;13.10;;;2.42;;
65234;SDS011;51820;48.374;10.930;2023-02-25T10:52:04;14.15;;;4.30;;
65234;SDS011;51820;48.374;10.930;2023-02-25T10:54:43;14.70;;;4.83;;
65234;SDS011;51820;48.374;10.930;2023-02-25T10:57:13;8.27;;;1.40;;
65234;SDS011;51820;48.374;10.930;2023-02-25T10:59:45;5.90;;;1.15;;
65234;SDS011;51820;48.374;10.930;2023-02-25T11:02:17;5.38;;;0.80;;
65234;SDS011;51820;48.374;10.930;2023-02-25T11:04:49;3.17;;;0.60;;
65234;SDS011;51820;48.374;10.930;2023-02-25T11:07:22;4.13;;;0.60;;
65234;SDS011;51820;48.374;10.930;2023-02-25T11:10:10;3.42;;;0.60;;
65234;SDS011;51820;48.374;10.930;2023-02-25T11:12:42;3.13;;;0.75;;
65234;SDS011;51820;48.374;10.930;2023-02-25T11:15:26;3.40;;;0.88;;
65234;SDS011;51820;48.374;10.930;2023-02-25T11:18:14;3.53;;;0.85;;
65234;SDS011;51820;48.374;10.930;2023-02-25T11:20:47;3.57;;;0.80;;
65234;SDS011;51820;48.374;10.930;2023-02-25T11:23:19;4.53;;;0.95;;
65234;SDS011;51820;48.374;10.930;2023-02-25T11:25:51;5.18;;;0.80;;
65234;SDS011;51820;48.374;10.930;2023-02-25T11:28:22;6.03;;;0.88;;
65234;SDS011;51820;48.374;10.930;2023-02-25T11:31:04;3.53;;;0.75;;
65234;SDS011;51820;48.374;10.930;2023-02-25T11:33:37;6.00;;;0.83;;
65234;SDS011;51820;48.374;10.930;2023-02-25T11:36:09;3.78;;;0.80;;
65234;SDS011;51820;48.374;10.930;2023-02-25T11:38:39;4.28;;;0.85;;
65234;SDS011;51820;48.374;10.930;2023-02-25T11:41:15;4.93;;;1.00;;
65234;SDS011;51820;48.374;10.930;2023-02-25T11:43:47;6.80;;;0.85;;
65234;SDS011;51820;48.374;10.930;2023-02-25T11:46:18;7.40;;;1.10;;
65234;SDS011;51820;48.374;10.930;2023-02-25T11:48:50;6.15;;;0.82;;
65234;SDS011;51820;48.374;10.930;2023-02-25T11:51:23;4.40;;;1.20;;
65234;SDS011;51820;48.374;10.930;2023-02-25T11:54:01;4.30;;;1.08;;
65234;SDS011;51820;48.374;10.930;2023-02-25T11:56:40;4.97;;;0.95;;
65234;SDS011;51820;48.374;10.930;2023-02-25T11:59:18;6.03;;;1.10;;
65234;SDS011;51820;48.374;10.930;2023-02-25T12:02:08;6.38;;;0.80;;
65234;SDS011;51820;48.374;10.930;2023-02-25T12:11:06;4.10;;;0.90;;
65234;SDS011;51820;48.374;10.930;2023-02-25T12:26:00;6.28;;;1.10;;
65234;SDS011;51820;48.374;10.930;2023-02-25T12:28:48;4.97;;;0.90;;
65234;SDS011;51820;48.374;10.930;2023-02-25T12:35:02;4.05;;;0.70;;
65234;SDS011;51820;48.374;10.930;2023-02-25T12:41:06;7.80;;;1.10;;
65234;SDS011;51820;48.374;10.930;2023-02-25T12:43:46;3.43;;;0.80;;
65234;SDS011;51820;48.374;10.930;2023-02-25T12:46:26;5.95;;;1.00;;
65234;SDS011;51820;48.374;10.930;2023-02-25T12:49:11;5.35;;;1.00;;
65234;SDS011;51820;48.374;10.930;2023-02-25T12:52:11;3.88;;;1.00;;
65234;SDS011;51820;48.374;10.930;2023-02-25T12:54:53;4.90;;;1.20;;
65234;SDS011;51820;48.374;10.930;2023-02-25T12:57:35;6.93;;;1.43;;
65234;SDS011;51820;48.374;10.930;2023-02-25T13:03:26;8.23;;;1.20;;
65234;SDS011;51820;48.374;10.930;2023-02-25T13:06:05;9.55;;;0.93;;
65234;SDS011;51820;48.374;10.930;2023-02-25T13:09:02;7.40;;;0.70;;
65234;SDS011;51820;48.374;10.930;2023-02-25T13:11:43;5.13;;;0.90;;
65234;SDS011;51820;48.374;10.930;2023-02-25T13:14:39;4.18;;;0.80;;
65234;SDS011;51820;48.374;10.930;2023-02-25T13:20:19;5.13;;;0.73;;
65234;SDS011;51820;48.374;10.930;2023-02-25T13:23:08;4.65;;;0.82;;
65234;SDS011;51820;48.374;10.930;2023-02-25T13:26:04;3.73;;;0.80;;
65234;SDS011;51820;48.374;10.930;2023-02-25T13:28:48;5.20;;;0.88;;
65234;SDS011;51820;48.374;10.930;2023-02-25T13:31:31;4.43;;;0.80;;
65234;SDS011;51820;48.374;10.930;2023-02-25T13:34:08;3.97;;;0.80;;
65234;SDS011;51820;48.374;10.930;2023-02-25T13:36:56;3.92;;;0.98;;
65234;SDS011;51820;48.374;10.930;2023-02-25T13:39:46;2.80;;;0.80;;
65234;SDS011;51820;48.374;10.930;2023-02-25T13:42:33;3.85;;;0.90;;
65234;SDS011;51820;48.374;10.930;2023-02-25T13:45:41;4.22;;;1.00;;
65234;SDS011;51820;48.374;10.930;2023-02-25T13:48:22;2.97;;;0.63;;
65234;SDS011;51820;48.374;10.930;2023-02-25T13:51:14;7.30;;;0.75;;
65234;SDS011;51820;48.374;10.930;2023-02-25T13:54:04;2.77;;;0.53;;
65234;SDS011;51820;48.374;10.930;2023-02-25T13:56:51;2.65;;;0.60;;
65234;SDS011;51820;48.374;10.930;2023-02-25T13:59:29;2.80;;;0.68;;
65234;SDS011;51820;48.374;10.930;2023-02-25T14:02:24;2.60;;;0.57;;
65234;SDS011;51820;48.374;10.930;2023-02-25T14:08:27;3.63;;;0.90;;
65234;SDS011;51820;48.374;10.930;2023-02-25T14:11:11;2.60;;;0.60;;
65234;SDS011;51820;48.374;10.930;2023-02-25T14:13:59;3.63;;;0.60;;
65234;SDS011;51820;48.374;10.930;2023-02-25T14:17:00;4.00;;;0.90;;
65234;SDS011;51820;48.374;10.930;2023-02-25T14:19:42;3.58;;;0.70;;
65234;SDS011;51820;48.374;10.930;2023-02-25T14:22:24;3.43;;;0.70;;
65234;SDS011;51820;48.374;10.930;2023-02-25T14:25:07;5.88;;;0.77;;
65234;SDS011;51820;48.374;10.930;2023-02-25T14:27:47;4.43;;;0.70;;
65234;SDS011;51820;48.374;10.930;2023-02-25T14:30:29;4.10;;;0.80;;
65234;SDS011;51820;48.374;10.930;2023-02-25T14:33:21;4.72;;;0.95;;
65234;SDS011;51820;48.374;10.930;2023-02-25T14:36:05;4.30;;;1.20;;
65234;SDS011;51820;48.374;10.930;2023-02-25T14:39:00;6.57;;;0.80;;
65234;SDS011;51820;48.374;10.930;2023-02-25T14:41:41;3.42;;;0.70;;
65234;SDS011;51820;48.374;10.930;2023-02-25T14:44:28;4.32;;;0.70;;
65234;SDS011;51820;48.374;10.930;2023-02-25T14:47:04;3.35;;;0.77;;
65234;SDS011;51820;48.374;10.930;2023-02-25T14:49:39;4.20;;;0.70;;
65234;SDS011;51820;48.374;10.930;2023-02-25T14:55:23;4.30;;;1.25;;
65234;SDS011;51820;48.374;10.930;2023-02-25T14:58:11;3.50;;;0.80;;
65234;SDS011;51820;48.374;10.930;2023-02-25T15:01:26;3.22;;;0.70;;
65234;SDS011;51820;48.374;10.930;2023-02-25T15:04:24;3.00;;;0.70;;
65234;SDS011;51820;48.374;10.930;2023-02-25T15:07:19;4.30;;;0.75;;
65234;SDS011;51820;48.374;10.930;2023-02-25T15:10:16;5.93;;;1.35;;
65234;SDS011;51820;48.374;10.930;2023-02-25T15:20:13;4.47;;;1.10;;
65234;SDS011;51820;48.374;10.930;2023-02-25T15:23:39;5.32;;;0.90;;
65234;SDS011;51820;48.374;10.930;2023-02-25T15:26:23;3.67;;;1.08;;
65234;SDS011;51820;48.374;10.930;2023-02-25T15:32:23;5.75;;;1.20;;
65234;SDS011;51820;48.374;10.930;2023-02-25T15:34:57;5.50;;;1.20;;
65234;SDS011;51820;48.374;10.930;2023-02-25T15:37:31;3.45;;;0.90;;
65234;SDS011;51820;48.374;10.930;2023-02-25T15:46:30;5.20;;;1.00;;
65234;SDS011;51820;48.374;10.930;2023-02-25T15:49:15;5.93;;;1.30;;
65234;SDS011;51820;48.374;10.930;2023-02-25T15:51:49;5.10;;;0.90;;
65234;SDS011;51820;48.374;10.930;2023-02-25T15:57:38;4.28;;;1.00;;
65234;SDS011;51820;48.374;10.930;2023-02-25T16:06:14;5.70;;;1.05;;
65234;SDS011;51820;48.374;10.930;2023-02-25T16:08:48;8.55;;;1.17;;
65234;SDS011;51820;48.374;10.930;2023-02-25T16:11:25;5.03;;;1.20;;
65234;SDS011;51820;48.374;10.930;2023-02-25T16:14:02;4.43;;;1.25;;
65234;SDS011;51820;48.374;10.930;2023-02-25T16:16:44;7.03;;;1.40;;
65234;SDS011;51820;48.374;10.930;2023-02-25T16:19:18;5.82;;;1.30;;
65234;SDS011;51820;48.374;10.930;2023-02-25T16:21:50;5.93;;;1.35;;
65234;SDS011;51820;48.374;10.930;2023-02-25T16:24:26;11.80;;;3.80;;